Time;durP1;ratioP1;P1;durP2;ratioP2;P2;SDS_P1;SDS_P2;PMS_P1;PMS_P2;Temp;Humidity;BMP_temperature;BMP_pressure;BME280_temperature;BME280_humidity;BME280_pressure;Samples;Min_cycle;Max_cycle;Signal;HPM_P1;HPM_P2
2023/07/29 00:01:40;;;;;;;1.50;1.20;;;19.30;99.90;;;19.62;nan;100045.84;4997710;28;20653;-65
2023/07/29 00:04:09;;;;;;;1.13;1.13;;;19.30;99.90;;;19.62;nan;100037.91;4993134;28;20689;-66
2023/07/29 00:06:36;;;;;;;1.27;1.17;;;19.30;99.90;;;19.65;nan;100042.84;5005588;28;20673;-66
2023/07/29 00:09:03;;;;;;;1.20;1.17;;;19.30;99.90;;;19.68;nan;100036.34;4997036;28;21179;-66
2023/07/29 00:11:32;;;;;;;1.47;1.47;;;19.40;99.90;;;19.73;nan;100040.09;4993680;28;20634;-66
2023/07/29 00:14:01;;;;;;;1.10;1.10;;;19.30;99.90;;;19.78;nan;100042.19;5005861;28;20660;-66
2023/07/29 00:16:28;;;;;;;1.07;1.07;;;19.40;99.90;;;19.81;nan;100040.00;5002821;28;20753;-67
2023/07/29 00:18:55;;;;;;;1.23;1.20;;;19.50;99.90;;;19.86;nan;100040.28;5008263;28;20641;-66
2023/07/29 00:21:22;;;;;;;1.10;1.10;;;19.50;99.90;;;19.83;nan;100027.41;5008930;28;20663;-66
2023/07/29 00:23:49;;;;;;;1.53;1.50;;;19.50;99.90;;;19.82;nan;100023.13;5003343;28;21052;-66
2023/07/29 00:26:16;;;;;;;1.03;1.03;;;19.50;99.90;;;19.81;nan;100018.00;5009359;28;20665;-66
2023/07/29 00:28:43;;;;;;;1.40;1.30;;;19.40;99.90;;;19.79;nan;100012.06;4999909;28;20665;-66
2023/07/29 00:31:10;;;;;;;0.93;0.93;;;19.40;99.90;;;19.82;nan;100014.34;5005514;28;21359;-65
2023/07/29 00:33:37;;;;;;;1.60;1.33;;;19.50;99.90;;;19.82;nan;100012.53;5006829;28;20637;-65
2023/07/29 00:36:04;;;;;;;2.60;1.57;;;19.50;99.90;;;19.81;nan;100010.06;5009590;28;20665;-65
2023/07/29 00:38:31;;;;;;;1.10;1.10;;;19.50;99.90;;;19.78;nan;100013.88;4998317;28;21006;-66
2023/07/29 00:41:00;;;;;;;1.17;1.17;;;19.40;99.90;;;19.76;nan;100005.31;5011768;28;20636;-66
2023/07/29 00:43:27;;;;;;;1.53;1.53;;;19.40;99.90;;;19.77;nan;100003.50;5002306;28;20645;-66
2023/07/29 00:45:54;;;;;;;1.10;1.00;;;19.40;99.90;;;19.78;nan;99998.00;4985640;28;20677;-64
2023/07/29 00:48:21;;;;;;;1.40;1.40;;;19.40;99.90;;;19.75;nan;99994.91;4998041;28;21207;-66
2023/07/29 00:50:49;;;;;;;1.97;1.87;;;19.40;99.90;;;19.75;nan;99997.56;5008998;28;20641;-66
2023/07/29 00:53:16;;;;;;;1.93;1.80;;;19.40;99.90;;;19.73;nan;100000.41;4997309;28;20634;-66
2023/07/29 00:55:44;;;;;;;1.83;1.70;;;19.40;99.90;;;19.72;nan;100001.38;5010275;28;20630;-66
2023/07/29 00:58:11;;;;;;;2.37;2.03;;;19.40;99.90;;;19.73;nan;99994.28;5008597;28;20640;-66
2023/07/29 01:00:38;;;;;;;1.97;1.87;;;19.40;99.90;;;19.72;nan;100003.25;5007055;28;20683;-65
2023/07/29 01:03:05;;;;;;;2.40;2.20;;;19.40;99.90;;;19.75;nan;100000.22;5007814;28;20624;-65
2023/07/29 01:05:55;;;;;;;2.17;2.07;;;19.40;99.90;;;19.75;nan;100006.34;4999976;28;20695;-65
2023/07/29 01:08:38;;;;;;;2.40;2.20;;;19.40;99.90;;;19.75;nan;100006.34;4998416;28;20642;-66
2023/07/29 01:11:29;;;;;;;2.20;1.97;;;19.40;99.90;;;19.77;nan;100000.84;4988581;28;20641;-67
2023/07/29 01:14:29;;;;;;;2.40;1.50;;;19.40;99.90;;;19.77;nan;99993.72;4998193;28;20646;-65
2023/07/29 01:17:03;;;;;;;1.47;1.37;;;19.40;99.90;;;19.76;nan;99993.91;5009154;28;20680;-65
2023/07/29 01:20:05;;;;;;;1.23;1.20;;;19.40;99.90;;;19.78;nan;99995.34;5008666;28;20656;-65
2023/07/29 01:22:37;;;;;;;0.93;0.93;;;19.40;99.90;;;19.77;nan;99993.72;4971930;28;20638;-65
2023/07/29 01:25:05;;;;;;;1.10;1.03;;;19.40;99.90;;;19.76;nan;99992.06;4985025;28;20676;-65
2023/07/29 01:27:32;;;;;;;1.10;1.03;;;19.40;99.90;;;19.76;nan;99984.13;4995137;28;20654;-65
2023/07/29 01:30:00;;;;;;;0.80;0.80;;;19.40;99.90;;;19.78;nan;99973.38;5001343;28;20643;-65
2023/07/29 01:32:55;;;;;;;1.17;1.17;;;19.40;99.90;;;19.77;nan;99972.56;5013741;28;20634;-65
2023/07/29 01:35:48;;;;;;;1.00;1.00;;;19.40;99.90;;;19.78;nan;99963.59;4990106;28;20642;-66
2023/07/29 01:38:20;;;;;;;0.90;0.90;;;19.40;99.90;;;19.76;nan;99968.25;4998615;28;20641;-65
2023/07/29 01:40:49;;;;;;;0.90;0.90;;;19.40;99.90;;;19.75;nan;99974.56;5003813;28;20643;-66
2023/07/29 01:43:17;;;;;;;1.20;1.10;;;19.40;99.90;;;19.74;nan;99977.41;4994725;28;20648;-66
2023/07/29 01:45:45;;;;;;;1.47;1.03;;;19.40;99.90;;;19.69;nan;99972.66;4994641;28;20671;-65
2023/07/29 01:48:12;;;;;;;1.17;1.03;;;19.30;99.90;;;19.65;nan;99971.41;5006074;28;20646;-65
2023/07/29 01:50:38;;;;;;;0.83;0.83;;;19.30;99.90;;;19.67;nan;99981.78;5001759;28;20638;-66
2023/07/29 01:53:05;;;;;;;0.60;0.60;;;19.30;99.90;;;19.66;nan;99969.53;5010504;28;20644;-66
2023/07/29 01:55:32;;;;;;;0.97;0.97;;;19.30;99.90;;;19.68;nan;99968.34;5002351;28;20638;-65
2023/07/29 01:57:59;;;;;;;0.80;0.80;;;19.30;99.90;;;19.67;nan;99974.69;5005265;28;21024;-66
2023/07/29 02:00:26;;;;;;;0.97;0.97;;;19.40;99.90;;;19.63;nan;99976.06;5009748;28;20647;-65
2023/07/29 02:02:53;;;;;;;0.73;0.73;;;19.30;99.90;;;19.61;nan;99967.47;5007082;28;20645;-66
2023/07/29 02:05:20;;;;;;;0.83;0.83;;;19.30;99.90;;;19.57;nan;99975.97;4989575;28;20679;-67
2023/07/29 02:07:47;;;;;;;0.90;0.90;;;19.20;99.90;;;19.55;nan;99965.53;4999504;28;20666;-67
2023/07/29 02:10:15;;;;;;;0.97;0.97;;;19.20;99.90;;;19.54;nan;99952.50;5002735;28;21111;-66
2023/07/29 02:12:43;;;;;;;1.00;0.87;;;19.20;99.90;;;19.53;nan;99959.59;5004506;28;20622;-63
2023/07/29 02:15:10;;;;;;;0.80;0.80;;;19.20;99.90;;;19.49;nan;99945.13;4986695;28;21191;-66
2023/07/29 02:17:37;;;;;;;1.20;1.20;;;19.20;99.90;;;19.45;nan;99954.41;4998390;28;20665;-66
2023/07/29 02:20:05;;;;;;;1.03;1.03;;;19.10;99.90;;;19.44;nan;99950.16;5000566;28;20644;-66
2023/07/29 02:22:32;;;;;;;1.00;1.00;;;19.10;99.90;;;19.41;nan;99950.50;5003977;28;20649;-65
2023/07/29 02:24:59;;;;;;;0.90;0.90;;;19.10;99.90;;;19.45;nan;99958.88;5008557;28;20673;-66
2023/07/29 02:27:29;;;;;;;1.03;1.03;;;19.10;99.90;;;19.39;nan;99947.22;5006898;28;20672;-66
2023/07/29 02:29:56;;;;;;;1.03;1.00;;;19.10;99.90;;;19.38;nan;99955.34;5003210;28;20653;-66
2023/07/29 02:32:23;;;;;;;0.97;0.97;;;19.10;99.90;;;19.37;nan;99953.69;4995432;28;20637;-65
2023/07/29 02:34:50;;;;;;;0.80;0.80;;;19.10;99.90;;;19.34;nan;99950.41;5001322;28;20661;-66
2023/07/29 02:37:18;;;;;;;1.20;1.20;;;19.00;99.90;;;19.32;nan;99948.91;5007020;28;20665;-64
2023/07/29 02:39:45;;;;;;;0.90;0.90;;;19.00;99.90;;;19.26;nan;99942.53;5001972;28;20644;-66
2023/07/29 02:42:12;;;;;;;1.20;1.10;;;19.00;99.90;;;19.27;nan;99954.75;5003125;28;20646;-67
2023/07/29 02:44:40;;;;;;;0.90;0.90;;;18.90;99.90;;;19.24;nan;99949.00;5004250;28;20669;-62
2023/07/29 02:47:07;;;;;;;1.20;1.20;;;18.90;99.90;;;19.19;nan;99951.38;4984413;28;21643;-65
2023/07/29 02:49:34;;;;;;;1.40;1.30;;;18.90;99.90;;;19.19;nan;99952.19;4987599;28;20638;-66
2023/07/29 02:52:01;;;;;;;1.57;1.07;;;18.90;99.90;;;19.19;nan;99951.38;4998180;28;20640;-66
2023/07/29 02:54:28;;;;;;;1.17;1.00;;;18.90;99.90;;;19.20;nan;99942.44;4994949;28;20698;-65
2023/07/29 02:56:55;;;;;;;0.97;0.97;;;18.90;99.90;;;19.20;nan;99942.44;4997329;28;20672;-66
2023/07/29 02:59:22;;;;;;;0.97;0.97;;;18.90;99.90;;;19.20;nan;99932.69;4989801;28;20658;-66
2023/07/29 03:01:49;;;;;;;1.30;1.20;;;18.90;99.90;;;19.16;nan;99923.50;5005040;28;20652;-66
2023/07/29 03:04:16;;;;;;;0.97;0.97;;;18.90;99.90;;;19.15;nan;99927.13;5008709;28;20665;-66
2023/07/29 03:06:43;;;;;;;1.60;1.23;;;18.80;99.90;;;19.16;nan;99922.66;5001298;28;20682;-63
2023/07/29 03:09:10;;;;;;;1.10;1.00;;;18.90;99.90;;;19.16;nan;99920.84;5009608;28;20634;-66
2023/07/29 03:11:37;;;;;;;1.13;1.03;;;18.80;99.90;;;19.15;nan;99918.38;5006396;28;21272;-66
2023/07/29 03:14:04;;;;;;;1.30;1.30;;;18.80;99.90;;;19.13;nan;99915.09;4998674;28;20641;-66
2023/07/29 03:16:31;;;;;;;1.03;1.03;;;18.80;99.90;;;19.15;nan;99915.72;5003879;28;20668;-66
2023/07/29 03:19:00;;;;;;;1.30;1.20;;;18.80;99.90;;;19.15;nan;99916.56;5009124;28;20645;-65
2023/07/29 03:21:27;;;;;;;1.00;1.00;;;18.80;99.90;;;19.17;nan;99922.47;4998696;28;20644;-66
2023/07/29 03:23:54;;;;;;;0.83;0.83;;;18.80;99.90;;;19.17;nan;99917.19;5009130;28;20656;-66
2023/07/29 03:26:20;;;;;;;0.83;0.83;;;18.90;99.90;;;19.20;nan;99918.66;4997132;28;21100;-67
2023/07/29 03:28:47;;;;;;;1.20;1.10;;;18.90;99.90;;;19.18;nan;99908.25;5009835;28;20629;-66
2023/07/29 03:31:14;;;;;;;1.07;1.07;;;18.90;99.90;;;19.22;nan;99914.00;4998226;28;20638;-66
2023/07/29 03:33:41;;;;;;;1.50;1.40;;;18.90;99.90;;;19.25;nan;99916.28;5008669;28;21166;-66
2023/07/29 03:36:08;;;;;;;1.20;1.10;;;18.90;99.90;;;19.29;nan;99904.34;4999154;28;20665;-65
2023/07/29 03:38:39;;;;;;;1.40;1.30;;;19.00;99.90;;;19.30;nan;99890.09;5009541;28;20642;-65
2023/07/29 03:41:08;;;;;;;1.20;1.20;;;19.00;99.90;;;19.28;nan;99890.28;4991639;28;20639;-66
2023/07/29 03:43:35;;;;;;;1.23;1.13;;;19.00;99.90;;;19.25;nan;99889.84;4989742;28;20648;-66
2023/07/29 03:46:02;;;;;;;4.80;1.10;;;18.90;99.90;;;19.26;nan;99889.66;4998755;28;20685;-66
2023/07/29 03:48:31;;;;;;;1.40;1.30;;;19.00;99.90;;;19.28;nan;99897.41;4987249;28;20645;-67
2023/07/29 03:50:58;;;;;;;1.07;0.97;;;19.00;99.90;;;19.30;nan;99905.97;5010452;28;20649;-66
2023/07/29 03:53:25;;;;;;;1.47;1.37;;;19.00;99.90;;;19.26;nan;99904.69;5006302;28;20646;-66
2023/07/29 03:55:52;;;;;;;1.10;1.10;;;19.00;99.90;;;19.26;nan;99905.53;5009942;28;20665;-64
2023/07/29 03:58:19;;;;;;;1.73;1.30;;;19.00;99.90;;;19.26;nan;99912.63;5003353;28;20644;-66
2023/07/29 04:00:46;;;;;;;0.97;0.97;;;19.00;99.90;;;19.29;nan;99917.56;5011237;28;20645;-66
2023/07/29 04:03:13;;;;;;;1.40;1.33;;;19.00;99.90;;;19.28;nan;99916.72;4998876;28;21431;-66
2023/07/29 04:05:40;;;;;;;1.20;1.20;;;19.00;99.90;;;19.30;nan;99916.53;5001791;28;20662;-65
2023/07/29 04:08:07;;;;;;;3.80;1.23;;;19.00;99.90;;;19.31;nan;99915.56;5006354;28;20648;-64
2023/07/29 04:10:35;;;;;;;1.30;1.10;;;19.00;99.90;;;19.31;nan;99904.97;5001283;28;20638;-64
2023/07/29 04:13:02;;;;;;;1.50;1.40;;;19.00;99.90;;;19.29;nan;99909.63;5005018;28;20633;-67
2023/07/29 04:15:29;;;;;;;1.27;1.17;;;19.00;99.90;;;19.26;nan;99912.63;5002258;28;20646;-65
2023/07/29 04:17:56;;;;;;;1.63;1.20;;;19.00;99.90;;;19.27;nan;99901.84;5005245;28;20640;-66
2023/07/29 04:20:23;;;;;;;1.10;1.10;;;19.00;99.90;;;19.26;nan;99894.13;5007487;28;20655;-64
2023/07/29 04:22:50;;;;;;;1.47;1.37;;;19.00;99.90;;;19.22;nan;99898.13;5003162;28;20653;-65
2023/07/29 04:25:20;;;;;;;2.20;1.67;;;18.90;99.90;;;19.21;nan;99909.69;5010868;28;20675;-64
2023/07/29 04:27:47;;;;;;;1.43;1.33;;;18.90;99.90;;;19.22;nan;99903.41;5007110;28;21224;-66
2023/07/29 04:30:14;;;;;;;1.20;1.20;;;18.90;99.90;;;19.22;nan;99900.78;5003861;28;20702;-66
2023/07/29 04:32:42;;;;;;;2.17;1.30;;;18.90;99.90;;;19.22;nan;99896.31;5009200;28;20645;-66
2023/07/29 04:35:09;;;;;;;1.20;1.20;;;18.90;99.90;;;19.22;nan;99890.19;4993943;28;20641;-66
2023/07/29 04:37:36;;;;;;;2.27;1.53;;;18.90;99.90;;;19.22;nan;99903.41;5002618;28;21047;-66
2023/07/29 04:40:03;;;;;;;1.60;1.50;;;18.90;99.90;;;19.26;nan;99899.41;5009480;28;21003;-66
2023/07/29 04:42:30;;;;;;;1.33;1.23;;;18.90;99.90;;;19.24;nan;99896.94;4999885;28;20648;-66
2023/07/29 04:44:58;;;;;;;1.50;1.47;;;19.00;99.90;;;19.26;nan;99894.13;4997178;28;20681;-66
2023/07/29 04:47:24;;;;;;;1.47;1.37;;;18.90;99.90;;;19.27;nan;99893.91;4999731;28;20662;-66
2023/07/29 04:49:53;;;;;;;1.27;1.27;;;19.00;99.90;;;19.28;nan;99906.16;4993322;28;20700;-66
2023/07/29 04:52:20;;;;;;;1.40;1.30;;;19.00;99.90;;;19.29;nan;99905.13;5004416;28;21171;-65
2023/07/29 04:54:47;;;;;;;1.50;1.30;;;19.00;99.90;;;19.34;nan;99908.09;5002483;28;20659;-66
2023/07/29 04:57:14;;;;;;;1.50;1.40;;;19.00;99.90;;;19.39;nan;99915.47;5009286;28;20675;-66
2023/07/29 04:59:42;;;;;;;1.50;1.40;;;19.10;99.90;;;19.38;nan;99921.75;5005200;28;21190;-67
2023/07/29 05:02:09;;;;;;;1.20;1.20;;;19.10;99.90;;;19.41;nan;99933.81;4997590;28;20653;-66
2023/07/29 05:04:36;;;;;;;1.10;1.10;;;19.10;99.90;;;19.41;nan;99928.50;4998703;28;21031;-66
2023/07/29 05:07:06;;;;;;;1.83;1.73;;;19.10;99.90;;;19.37;nan;99927.25;4989763;28;20728;-66
2023/07/29 05:09:33;;;;;;;2.00;1.57;;;19.10;99.90;;;19.38;nan;99929.69;4991786;28;20645;-67
2023/07/29 05:12:00;;;;;;;1.63;1.53;;;19.10;99.90;;;19.41;nan;99939.09;5007149;28;20641;-66
2023/07/29 05:14:27;;;;;;;2.30;1.60;;;19.10;99.90;;;19.42;nan;99933.66;5010692;28;20637;-67
2023/07/29 05:16:53;;;;;;;3.20;1.57;;;19.10;99.90;;;19.45;nan;99927.13;4992010;28;20677;-65
2023/07/29 05:19:21;;;;;;;1.80;1.70;;;19.10;99.90;;;19.48;nan;99927.63;5010565;28;20641;-67
2023/07/29 05:21:47;;;;;;;1.40;1.40;;;19.10;99.90;;;19.49;nan;99931.06;4996603;28;20642;-66
2023/07/29 05:24:14;;;;;;;1.43;1.40;;;19.20;99.90;;;19.52;nan;99928.88;5005597;28;20626;-66
2023/07/29 05:26:41;;;;;;;3.33;1.60;;;19.20;99.90;;;19.57;nan;99931.78;4996787;28;20674;-66
2023/07/29 05:29:08;;;;;;;1.53;1.43;;;19.20;99.90;;;19.60;nan;99928.78;5011092;28;21202;-66
2023/07/29 05:31:35;;;;;;;1.43;1.33;;;19.30;99.90;;;19.61;nan;99930.44;5006974;28;20634;-66
2023/07/29 05:34:02;;;;;;;1.67;1.57;;;19.30;99.90;;;19.66;nan;99937.78;5000595;28;20633;-64
2023/07/29 05:36:29;;;;;;;1.50;1.43;;;19.30;99.90;;;19.65;nan;99931.69;5003080;28;20690;-66
2023/07/29 05:39:00;;;;;;;3.50;1.50;;;19.30;99.90;;;19.65;nan;99942.28;5000189;28;20714;-65
2023/07/29 05:41:28;;;;;;;1.37;1.33;;;19.30;99.90;;;19.67;nan;99940.28;5002494;28;20645;-66
2023/07/29 05:43:55;;;;;;;1.90;1.80;;;19.30;99.90;;;19.68;nan;99939.25;5007338;28;20638;-66
2023/07/29 05:46:22;;;;;;;1.67;1.57;;;19.40;99.90;;;19.71;nan;99935.41;5002737;28;20680;-66
2023/07/29 05:48:49;;;;;;;1.60;1.50;;;19.40;99.90;;;19.75;nan;99936.69;4993512;28;20622;-64
2023/07/29 05:51:16;;;;;;;1.33;1.30;;;19.40;99.90;;;19.78;nan;99931.03;4995602;28;20637;-66
2023/07/29 05:53:44;;;;;;;1.47;1.40;;;19.40;99.90;;;19.76;nan;99927.75;5005975;28;20657;-67
2023/07/29 05:56:11;;;;;;;1.57;1.50;;;19.40;99.90;;;19.81;nan;99939.41;5005913;28;21253;-66
2023/07/29 05:58:38;;;;;;;1.13;1.13;;;19.50;99.90;;;19.83;nan;99945.34;5010492;28;20641;-67
2023/07/29 06:01:05;;;;;;;1.27;1.27;;;19.50;99.90;;;19.83;nan;99945.34;4994206;28;20642;-66
2023/07/29 06:03:32;;;;;;;1.37;1.33;;;19.50;99.90;;;19.86;nan;99925.63;4990957;28;20639;-63
2023/07/29 06:05:59;;;;;;;1.43;1.33;;;19.50;99.90;;;19.91;nan;99937.28;4998004;28;21047;-66
2023/07/29 06:08:28;;;;;;;0.90;0.90;;;19.60;99.90;;;20.00;nan;99941.47;4999363;28;21206;-66
2023/07/29 06:10:55;;;;;;;0.80;0.80;;;19.70;99.90;;;20.06;nan;99930.13;4985554;28;20637;-64
2023/07/29 06:13:22;;;;;;;0.83;0.70;;;19.70;99.90;;;20.12;nan;99934.66;4988642;28;21255;-64
2023/07/29 06:15:49;;;;;;;0.87;0.87;;;19.80;99.90;;;20.18;nan;99933.09;4989603;28;20674;-67
2023/07/29 06:18:16;;;;;;;1.20;1.20;;;19.90;99.90;;;20.26;nan;99934.81;4987570;28;20649;-64
2023/07/29 06:20:43;;;;;;;0.73;0.73;;;19.90;99.90;;;20.35;nan;99946.94;4990122;28;20676;-66
2023/07/29 06:23:10;;;;;;;0.97;0.80;;;20.00;99.90;;;20.34;nan;99935.50;4994269;28;20642;-64
2023/07/29 06:25:37;;;;;;;1.33;1.33;;;20.10;99.90;;;20.32;nan;99928.75;4998731;28;20678;-66
2023/07/29 06:28:04;;;;;;;0.80;0.80;;;20.00;99.90;;;20.33;nan;99935.72;4987377;28;21042;-62
2023/07/29 06:30:32;;;;;;;1.10;1.10;;;20.00;99.90;;;20.39;nan;99929.66;4997501;28;20649;-66
2023/07/29 06:32:59;;;;;;;0.87;0.87;;;20.10;99.90;;;20.53;nan;99944.69;5000733;28;20677;-65
2023/07/29 06:35:26;;;;;;;0.83;0.83;;;20.20;99.90;;;20.58;nan;99934.31;4990763;28;21226;-67
2023/07/29 06:37:53;;;;;;;1.13;1.13;;;20.30;99.90;;;20.59;nan;99935.97;4999589;28;20669;-66
2023/07/29 06:40:20;;;;;;;1.00;1.00;;;20.20;99.90;;;20.63;nan;99942.50;5005837;28;20649;-67
2023/07/29 06:42:47;;;;;;;0.90;0.90;;;20.30;99.90;;;20.67;nan;99928.69;4997603;28;21210;-66
2023/07/29 06:45:15;;;;;;;0.90;0.90;;;20.40;99.90;;;20.79;nan;99944.88;4993125;28;21184;-67
2023/07/29 06:47:42;;;;;;;1.10;0.97;;;20.50;99.90;;;20.95;nan;99946.44;4981659;28;20712;-66
2023/07/29 06:50:09;;;;;;;0.90;0.90;;;20.60;99.90;;;21.14;nan;99936.00;4987312;28;20685;-65
2023/07/29 06:52:38;;;;;;;1.17;1.17;;;20.80;99.90;;;21.30;nan;99933.00;4995111;28;20633;-66
2023/07/29 06:55:05;;;;;;;1.23;1.13;;;21.00;99.90;;;21.90;nan;99942.91;4992894;28;20648;-66
2023/07/29 06:57:32;;;;;;;1.00;1.00;;;21.40;99.90;;;22.90;nan;99946.31;4998528;28;20662;-66
2023/07/29 06:59:59;;;;;;;1.03;1.00;;;22.40;99.90;;;23.90;nan;99937.84;4989438;28;20643;-66
2023/07/29 07:02:26;;;;;;;0.80;0.80;;;23.40;99.90;;;24.60;nan;99953.63;4994821;28;20637;-66
2023/07/29 07:04:53;;;;;;;0.90;0.90;;;24.10;99.90;;;24.85;nan;99952.88;4984760;28;20639;-66
2023/07/29 07:07:20;;;;;;;1.10;1.10;;;24.50;99.90;;;24.96;nan;99955.63;4986892;28;20681;-66
2023/07/29 07:09:47;;;;;;;1.30;1.20;;;24.60;99.90;;;24.96;nan;99960.94;4984779;28;21062;-67
2023/07/29 07:12:14;;;;;;;0.90;0.90;;;24.60;99.90;;;24.62;nan;99958.75;4988409;28;21207;-65
2023/07/29 07:14:41;;;;;;;1.27;1.27;;;24.30;99.90;;;24.36;nan;99962.41;4994411;28;21206;-64
2023/07/29 07:17:08;;;;;;;1.00;1.00;;;24.10;99.90;;;24.09;nan;99963.63;5007513;28;20661;-66
2023/07/29 07:19:37;;;;;;;1.23;1.13;;;23.80;99.90;;;23.79;nan;99962.50;4990796;28;21066;-66
2023/07/29 07:22:04;;;;;;;1.10;1.10;;;23.50;99.90;;;23.48;nan;99965.06;4999488;28;21014;-66
2023/07/29 07:24:31;;;;;;;0.90;0.90;;;23.20;99.90;;;23.23;nan;99967.56;4994876;28;20634;-66
2023/07/29 07:26:58;;;;;;;1.23;1.23;;;23.00;99.90;;;23.02;nan;99975.78;5002052;28;20681;-66
2023/07/29 07:29:25;;;;;;;1.10;1.00;;;22.80;99.90;;;22.80;nan;99972.53;5000906;28;20641;-66
2023/07/29 07:31:53;;;;;;;1.23;1.13;;;22.50;99.90;;;22.62;nan;99972.31;4986658;28;20648;-66
2023/07/29 07:34:21;;;;;;;1.40;1.30;;;22.40;99.90;;;22.55;nan;99982.09;5007162;28;20637;-66
2023/07/29 07:36:49;;;;;;;1.57;1.47;;;22.30;99.90;;;22.50;nan;99973.91;4991561;28;20665;-65
2023/07/29 07:39:16;;;;;;;2.33;1.80;;;22.20;99.90;;;22.49;nan;99988.19;4995042;28;20669;-66
2023/07/29 07:41:43;;;;;;;1.53;1.40;;;22.10;99.90;;;22.48;nan;99988.41;5007648;28;20651;-66
2023/07/29 07:44:10;;;;;;;1.63;1.50;;;22.10;99.90;;;22.43;nan;99997.00;5003824;28;20676;-65
2023/07/29 07:46:37;;;;;;;1.30;1.20;;;22.10;99.90;;;22.30;nan;100000.44;4995527;28;20816;-66
2023/07/29 07:49:05;;;;;;;1.80;1.70;;;22.00;99.90;;;22.24;nan;100016.38;4998024;28;20632;-64
2023/07/29 07:51:32;;;;;;;1.37;0.90;;;22.00;99.90;;;22.01;nan;100014.06;5007082;28;20637;-66
2023/07/29 07:53:59;;;;;;;1.10;1.00;;;21.80;99.90;;;21.83;nan;99992.50;5010060;28;20646;-64
2023/07/29 07:56:25;;;;;;;0.80;0.80;;;21.60;99.90;;;21.60;nan;99994.63;4996961;28;20666;-66
2023/07/29 07:58:52;;;;;;;0.60;0.60;;;21.30;99.90;;;21.41;nan;99990.84;5001826;28;21221;-65
2023/07/29 08:01:19;;;;;;;0.67;0.67;;;21.20;99.90;;;21.30;nan;99996.69;4996565;28;20653;-66
2023/07/29 08:03:47;;;;;;;0.60;0.60;;;21.00;99.90;;;21.32;nan;99994.66;5007498;28;20645;-65
2023/07/29 08:06:14;;;;;;;0.70;0.70;;;21.00;99.90;;;21.37;nan;99989.59;5006595;28;20685;-65
2023/07/29 08:08:41;;;;;;;1.17;0.90;;;21.10;99.90;;;21.47;nan;99981.28;5005494;28;20646;-68
2023/07/29 08:11:08;;;;;;;0.87;0.87;;;21.20;99.90;;;21.62;nan;99976.66;5008113;28;20648;-66
2023/07/29 08:13:35;;;;;;;0.73;0.73;;;21.30;99.90;;;21.80;nan;99984.09;5002665;28;20648;-64
2023/07/29 08:16:02;;;;;;;0.67;0.67;;;21.40;99.90;;;21.97;nan;99980.09;5006539;28;20660;-65
2023/07/29 08:18:29;;;;;;;0.60;0.60;;;21.60;99.90;;;22.11;nan;99977.28;4993543;28;20642;-65
2023/07/29 08:21:02;;;;;;;0.90;0.70;;;21.80;99.90;;;22.18;nan;99999.41;5005867;28;21026;-65
2023/07/29 08:23:32;;;;;;;5.23;0.70;;;21.80;99.90;;;22.20;nan;99988.56;5003462;28;20648;-66
2023/07/29 08:26:03;;;;;;;0.77;0.63;;;21.90;99.90;;;22.35;nan;99983.91;5009577;28;21326;-66
2023/07/29 08:28:36;;;;;;;1.17;0.80;;;22.00;99.90;;;22.69;nan;99981.09;5001953;28;20638;-66
2023/07/29 08:31:03;;;;;;;1.10;1.00;;;22.30;99.90;;;;;;5023413;28;20644;-65
2023/07/29 08:33:31;;;;;;;0.90;0.90;;;22.90;99.90;;;23.73;nan;99982.81;5000268;28;20643;-65
2023/07/29 08:35:58;;;;;;;1.10;1.00;;;23.30;99.90;;;24.07;nan;99980.84;4996188;28;20777;-67
2023/07/29 08:38:25;;;;;;;1.00;1.00;;;23.70;99.90;;;24.40;nan;99978.81;4998832;28;20631;-65
2023/07/29 08:41:17;;;;;;;1.37;1.00;;;24.00;99.90;;;25.63;nan;99981.47;4983895;28;20657;-67
2023/07/29 08:44:18;;;;;;;1.20;0.97;;;25.00;99.90;;;26.84;nan;99998.13;4998235;28;20648;-66
2023/07/29 08:46:46;;;;;;;0.77;0.77;;;26.30;99.90;;;27.06;nan;99991.19;5012277;28;20680;-65
2023/07/29 08:49:13;;;;;;;1.30;0.67;;;26.70;99.90;;;27.39;nan;99986.06;4990515;28;20647;-65
2023/07/29 08:51:42;;;;;;;0.80;0.80;;;26.90;99.90;;;27.94;nan;99996.31;4997997;28;20627;-66
2023/07/29 08:54:10;;;;;;;0.70;0.70;;;27.50;99.90;;;28.02;nan;100009.38;5008022;28;20630;-64
2023/07/29 08:56:38;;;;;;;3.23;0.70;;;27.70;99.90;;;27.86;nan;100012.75;4993483;28;20661;-67
2023/07/29 08:59:06;;;;;;;0.87;0.87;;;27.50;99.90;;;27.58;nan;100014.34;5005804;28;20640;-67
2023/07/29 09:01:33;;;;;;;0.60;0.60;;;27.30;99.90;;;27.20;nan;100016.66;5004419;28;20642;-66
2023/07/29 09:04:00;;;;;;;1.00;1.00;;;27.00;99.90;;;26.62;nan;100010.41;5004967;28;21755;-65
2023/07/29 09:06:29;;;;;;;1.00;1.00;;;26.50;99.90;;;26.13;nan;100009.63;5002525;28;21263;-67
2023/07/29 09:08:56;;;;;;;1.00;1.00;;;26.00;99.90;;;25.81;nan;100010.03;5004578;28;20630;-66
2023/07/29 09:11:23;;;;;;;0.83;0.83;;;25.60;99.90;;;25.39;nan;100015.16;4989367;28;21034;-67
2023/07/29 09:13:50;;;;;;;0.80;0.80;;;25.20;99.90;;;25.13;nan;100017.28;4994431;28;20649;-67
2023/07/29 09:16:17;;;;;;;1.00;1.00;;;24.90;99.90;;;24.97;nan;100017.81;4995896;28;20669;-65
2023/07/29 09:18:47;;;;;;;1.93;1.10;;;24.70;99.90;;;24.87;nan;100018.31;4996954;28;20652;-66
2023/07/29 09:21:17;;;;;;;0.80;0.80;;;24.60;99.90;;;24.82;nan;100017.31;4984642;28;20658;-67
2023/07/29 09:23:44;;;;;;;2.03;0.93;;;24.50;99.90;;;24.77;nan;100014.50;5004418;28;20625;-67
2023/07/29 09:26:11;;;;;;;0.90;0.87;;;24.40;99.90;;;24.69;nan;100012.88;4996401;28;20681;-65
2023/07/29 09:28:41;;;;;;;0.80;0.80;;;24.40;99.90;;;24.70;nan;100014.53;5007751;28;20634;-67
2023/07/29 09:31:20;;;;;;;1.00;1.00;;;24.30;99.90;;;24.82;nan;100006.66;5002657;28;21006;-66
2023/07/29 09:33:47;;;;;;;1.17;1.00;;;24.50;99.90;;;24.97;nan;99999.97;5002788;28;20702;-66
2023/07/29 09:36:15;;;;;;;1.07;1.07;;;24.60;99.90;;;25.16;nan;99998.16;4979487;28;20670;-67
2023/07/29 09:38:45;;;;;;;1.57;1.00;;;24.80;99.90;;;25.25;nan;99995.00;4998133;28;20646;-66
2023/07/29 09:41:15;;;;;;;1.00;1.00;;;24.90;99.90;;;25.34;nan;99998.19;5003377;28;21262;-66
2023/07/29 09:43:42;;;;;;;1.00;1.00;;;25.00;99.90;;;25.47;nan;99998.06;5000108;28;20648;-67
2023/07/29 09:46:09;;;;;;;1.10;1.10;;;25.00;99.90;;;25.62;nan;99981.69;4994101;28;21047;-66
2023/07/29 09:48:37;;;;;;;1.00;1.00;;;25.20;99.90;;;25.92;nan;99983.34;4983559;28;20637;-66
2023/07/29 09:51:15;;;;;;;1.57;1.10;;;25.50;99.90;;;26.20;nan;99985.47;5007476;28;20638;-66
2023/07/29 09:53:48;;;;;;;0.87;0.87;;;25.80;99.90;;;26.46;nan;99979.75;5000748;28;20641;-68
2023/07/29 09:56:15;;;;;;;0.90;0.90;;;26.00;99.90;;;26.64;nan;99982.34;5002963;28;20676;-67
2023/07/29 09:58:46;;;;;;;1.20;1.20;;;26.20;99.90;;;26.85;nan;99970.34;4993865;28;21236;-67
2023/07/29 10:01:14;;;;;;;0.90;0.90;;;26.40;99.90;;;26.96;nan;99972.16;4999947;28;20649;-67
2023/07/29 10:03:42;;;;;;;1.17;1.07;;;26.60;99.90;;;27.11;nan;99983.25;5005446;28;20650;-67
2023/07/29 10:06:10;;;;;;;1.00;1.00;;;26.80;99.90;;;27.37;nan;99980.13;5003982;28;21110;-68
2023/07/29 10:08:39;;;;;;;1.10;1.10;;;27.10;99.90;;;27.62;nan;99980.66;4994802;28;20642;-68
2023/07/29 10:11:08;;;;;;;1.13;1.13;;;27.50;99.90;;;27.81;nan;99994.75;5003750;28;20757;-66
2023/07/29 10:13:36;;;;;;;0.87;0.87;;;27.70;99.90;;;27.93;nan;99998.19;5005169;28;21181;-67
2023/07/29 10:16:04;;;;;;;1.17;1.17;;;27.70;99.90;;;27.87;nan;99996.47;4996066;28;20662;-67
2023/07/29 10:18:33;;;;;;;1.90;1.30;;;27.70;99.90;;;27.86;nan;99994.81;5014183;28;20649;-66
2023/07/29 10:21:02;;;;;;;1.30;1.20;;;27.60;99.90;;;27.70;nan;99990.22;4991790;28;21199;-66
2023/07/29 10:23:37;;;;;;;1.30;1.20;;;27.40;99.90;;;27.57;nan;99977.88;5004781;28;20683;-67
2023/07/29 10:26:06;;;;;;;1.20;1.20;;;27.30;99.90;;;27.39;nan;99977.19;5006182;28;20660;-66
2023/07/29 10:28:41;;;;;;;1.40;1.40;;;27.00;99.90;;;27.10;nan;99975.44;4993535;28;20647;-65
2023/07/29 10:31:09;;;;;;;1.30;1.30;;;26.80;99.90;;;26.81;nan;99977.19;4985877;28;20633;-66
2023/07/29 10:33:37;;;;;;;1.60;1.50;;;26.50;99.90;;;26.57;nan;99983.50;5006073;28;20645;-66
2023/07/29 10:36:05;;;;;;;1.23;1.23;;;26.20;99.90;;;26.49;nan;99973.94;4995977;28;20662;-67
2023/07/29 10:38:32;;;;;;;1.27;1.27;;;26.10;99.90;;;26.44;nan;99967.66;4993911;28;20668;-67